Airfield :
LOGIN :

Register | Disclaimer

   EN    FR    IT 

 










Legend :    VFR   Marginal VFR   IFR   Intensive IFR   Very Intensive IFR
Visi :
Ceiling :
>= 8 km
>= 3000ft
5 to 8 km
1000 to 3000 ft
1500m to 5 km
500 to 1000 ft
800 to 1500m
200 to 500 ft
< 800m
< 200 ft
Symbols :   Thunderstorms  Fog  Heavy snow  Heavy precipitations  Wind > 20 kt
SIGMETs :     Misc.  Thunderstorms  Icing  Turbulence  Mountain Waves  Volcanic Ashes







- Airport Elevation : 184 ft
- IATA code : BRU


EBBR - Bruxelles

CURRENT METAR :
  • 142220Z 24006KT CAVOK 17/13 Q1019 NOSIG

EXPIRED METARs :
  • 142150Z 25005KT CAVOK 17/13 Q1019 NOSIG
  • 142120Z 26005KT CAVOK 18/13 Q1019 NOSIG
  • 142050Z 24005KT 9999 SCT049 18/12 Q1018 NOSIG
  • 142020Z 24004KT CAVOK 18/13 Q1019 NOSIG
  • 141950Z 27005KT CAVOK 19/12 Q1019 NOSIG

TAF TAF EBBR
Valid from the 14 at 18:00 until the 16 at 00:00 UTC


141700Z 1418/1524 28010KT 9999 FEW020 SCT040
BECMG 1421/1423 21008KT
TEMPO 1504/1508 BKN007
No reported NOTAMs for that airfield.



MET'MAP, your aeronautical weather chart ! - Copyright ORBIFLY December 2007 - Disclaimer

ORBIFLY MET'MAP TEAM :

Programming & Development : Alexandra Zaïnal
Concept & Development : Baudouin d'Aumeries
Co-Development & Prog : Marc-Olivier Méhu
Technical & hardware support : Manuel Goepfert

Contact : metmap@orbifly.com




SOURCES & CREDITS :

   NOAA